ROMMA est une association bénévole à but non lucratif. Votre soutien est indispensable : ADHERER à ROMMA ou FAIRE un DON

Crest - (26, Drôme)

Vallée de la Drôme (315 m)   Longitude: 5°2' E   Latitude: 44°44' N Station partenaire n°62
 

Détail journalier du     <<     >>

Température Precipitation Humidité Pression Vent Dir Rafale Dir. rafale Ensol.
Heure (°C) (mm) (%) (hPa) (km/h) (km/h) (min)
01:00 13.4087102210N31N0
02:00 13.3087102210SSO26SO0
03:00 13.1087102212SSO27SSO0
04:00 12.9089102212SSO27N0
05:00 12.6089102216SSO35SSO0
06:00 12.2090102219SSO40SSO0
07:00 12.1089102217SSO40SSO0
08:00 12.3088102214SSO31SSO22
09:00 12.9086102211N32NNO36
10:00 15.2079102214N31N57
11:00 16.8070102219N45N60
12:00 18.1067102220N44N60
13:00 18.8061102121N44NNO60
14:00 19.5059102120N45SO37
15:00 20.3056102122N45NNO53
16:00 20.3057102023SSO47N45
17:00 20.2058102022N53S33
18:00 20.4058102021SSO47N41
19:00 20.2060102020N40SO53
20:00 19.5063102017N37N11
21:00 18.8066102017SSO37N8
22:00 17.9070102115SSO32NNO0
23:00 16.907410219SSO24SSO0
minuit 16.207810218S15N0

Graphique du 21-08-2019

 

Serveur OMMA